sensor_id;sensor_type;location;lat;lon;timestamp;P1;durP1;ratioP1;P2;durP2;ratioP2
2756;SDS011;1386;50.862;6.494;2023-05-10T00:00:39;12.27;;;10.10;;
2756;SDS011;1386;50.862;6.494;2023-05-10T00:03:06;11.90;;;9.00;;
2756;SDS011;1386;50.862;6.494;2023-05-10T00:05:33;13.57;;;10.13;;
2756;SDS011;1386;50.862;6.494;2023-05-10T00:08:00;11.83;;;9.77;;
2756;SDS011;1386;50.862;6.494;2023-05-10T00:10:28;14.20;;;10.20;;
2756;SDS011;1386;50.862;6.494;2023-05-10T00:12:55;12.80;;;10.40;;
2756;SDS011;1386;50.862;6.494;2023-05-10T00:15:22;14.10;;;9.70;;
2756;SDS011;1386;50.862;6.494;2023-05-10T00:17:49;11.50;;;9.77;;
2756;SDS011;1386;50.862;6.494;2023-05-10T00:20:16;13.40;;;10.57;;
2756;SDS011;1386;50.862;6.494;2023-05-10T00:22:43;14.17;;;10.63;;
2756;SDS011;1386;50.862;6.494;2023-05-10T00:25:09;14.10;;;9.87;;
2756;SDS011;1386;50.862;6.494;2023-05-10T00:27:38;11.93;;;10.10;;
2756;SDS011;1386;50.862;6.494;2023-05-10T00:30:05;13.03;;;9.33;;
2756;SDS011;1386;50.862;6.494;2023-05-10T00:32:33;10.53;;;7.87;;
2756;SDS011;1386;50.862;6.494;2023-05-10T00:35:00;14.13;;;8.50;;
2756;SDS011;1386;50.862;6.494;2023-05-10T00:37:27;8.77;;;7.20;;
2756;SDS011;1386;50.862;6.494;2023-05-10T00:39:54;8.67;;;7.77;;
2756;SDS011;1386;50.862;6.494;2023-05-10T00:42:20;7.63;;;6.37;;
2756;SDS011;1386;50.862;6.494;2023-05-10T00:44:49;8.30;;;6.27;;
2756;SDS011;1386;50.862;6.494;2023-05-10T00:47:16;8.93;;;6.77;;
2756;SDS011;1386;50.862;6.494;2023-05-10T00:49:43;9.17;;;6.63;;
2756;SDS011;1386;50.862;6.494;2023-05-10T00:52:11;10.30;;;7.67;;
2756;SDS011;1386;50.862;6.494;2023-05-10T00:54:38;11.23;;;7.07;;
2756;SDS011;1386;50.862;6.494;2023-05-10T00:57:05;7.87;;;5.93;;
2756;SDS011;1386;50.862;6.494;2023-05-10T00:59:33;7.63;;;6.43;;
2756;SDS011;1386;50.862;6.494;2023-05-10T01:02:01;8.03;;;6.50;;
2756;SDS011;1386;50.862;6.494;2023-05-10T07:23:59;11.17;;;6.70;;
2756;SDS011;1386;50.862;6.494;2023-05-10T07:26:26;8.97;;;5.63;;
2756;SDS011;1386;50.862;6.494;2023-05-10T07:28:53;7.63;;;5.43;;
2756;SDS011;1386;50.862;6.494;2023-05-10T07:31:21;6.63;;;4.67;;
2756;SDS011;1386;50.862;6.494;2023-05-10T07:33:48;3.17;;;2.60;;
2756;SDS011;1386;50.862;6.494;2023-05-10T07:36:15;4.00;;;2.80;;
2756;SDS011;1386;50.862;6.494;2023-05-10T07:38:45;3.00;;;2.70;;
2756;SDS011;1386;50.862;6.494;2023-05-10T07:41:12;4.27;;;2.03;;
2756;SDS011;1386;50.862;6.494;2023-05-10T07:43:42;2.23;;;1.90;;
2756;SDS011;1386;50.862;6.494;2023-05-10T07:46:09;4.50;;;2.13;;
2756;SDS011;1386;50.862;6.494;2023-05-10T07:48:38;3.53;;;2.03;;
2756;SDS011;1386;50.862;6.494;2023-05-10T07:51:05;2.33;;;1.90;;
2756;SDS011;1386;50.862;6.494;2023-05-10T07:53:34;2.60;;;2.07;;
2756;SDS011;1386;50.862;6.494;2023-05-10T07:56:19;2.50;;;2.13;;
2756;SDS011;1386;50.862;6.494;2023-05-10T07:58:47;3.67;;;2.37;;
2756;SDS011;1386;50.862;6.494;2023-05-10T08:01:14;2.73;;;2.40;;
2756;SDS011;1386;50.862;6.494;2023-05-10T08:03:42;2.83;;;2.60;;
2756;SDS011;1386;50.862;6.494;2023-05-10T08:06:09;3.30;;;2.53;;
2756;SDS011;1386;50.862;6.494;2023-05-10T08:08:36;3.63;;;2.63;;
2756;SDS011;1386;50.862;6.494;2023-05-10T08:11:03;2.73;;;2.53;;
2756;SDS011;1386;50.862;6.494;2023-05-10T08:13:30;3.37;;;2.90;;
2756;SDS011;1386;50.862;6.494;2023-05-10T08:15:57;2.90;;;2.50;;
2756;SDS011;1386;50.862;6.494;2023-05-10T08:18:24;4.33;;;3.00;;
2756;SDS011;1386;50.862;6.494;2023-05-10T08:20:52;3.37;;;2.90;;
2756;SDS011;1386;50.862;6.494;2023-05-10T08:23:19;3.07;;;2.70;;
2756;SDS011;1386;50.862;6.494;2023-05-10T08:25:46;5.03;;;4.17;;
2756;SDS011;1386;50.862;6.494;2023-05-10T08:28:13;4.60;;;4.03;;
2756;SDS011;1386;50.862;6.494;2023-05-10T08:30:40;8.30;;;5.23;;
2756;SDS011;1386;50.862;6.494;2023-05-10T08:33:06;9.10;;;6.33;;
2756;SDS011;1386;50.862;6.494;2023-05-10T08:35:34;13.63;;;9.17;;
2756;SDS011;1386;50.862;6.494;2023-05-10T08:38:02;17.90;;;11.17;;
2756;SDS011;1386;50.862;6.494;2023-05-10T08:40:29;22.67;;;11.70;;
2756;SDS011;1386;50.862;6.494;2023-05-10T08:42:57;18.97;;;11.40;;
2756;SDS011;1386;50.862;6.494;2023-05-10T08:45:26;19.80;;;11.67;;
2756;SDS011;1386;50.862;6.494;2023-05-10T08:47:58;21.60;;;12.23;;
2756;SDS011;1386;50.862;6.494;2023-05-10T08:50:27;24.07;;;12.73;;
2756;SDS011;1386;50.862;6.494;2023-05-10T08:53:04;18.83;;;10.87;;
2756;SDS011;1386;50.862;6.494;2023-05-10T08:55:33;17.60;;;10.97;;
2756;SDS011;1386;50.862;6.494;2023-05-10T08:58:03;17.47;;;11.70;;
2756;SDS011;1386;50.862;6.494;2023-05-10T09:00:35;15.70;;;10.27;;
2756;SDS011;1386;50.862;6.494;2023-05-10T09:03:10;20.87;;;10.97;;
2756;SDS011;1386;50.862;6.494;2023-05-10T09:05:47;19.00;;;10.80;;
2756;SDS011;1386;50.862;6.494;2023-05-10T09:08:18;21.83;;;11.40;;
2756;SDS011;1386;50.862;6.494;2023-05-10T09:10:46;22.60;;;13.33;;
2756;SDS011;1386;50.862;6.494;2023-05-10T09:16:27;21.67;;;13.50;;
2756;SDS011;1386;50.862;6.494;2023-05-10T09:19:02;28.37;;;14.13;;
2756;SDS011;1386;50.862;6.494;2023-05-10T09:25:07;20.70;;;12.90;;
2756;SDS011;1386;50.862;6.494;2023-05-10T09:27:36;22.43;;;11.70;;
2756;SDS011;1386;50.862;6.494;2023-05-10T09:30:15;24.70;;;11.27;;
2756;SDS011;1386;50.862;6.494;2023-05-10T09:32:44;15.13;;;8.50;;
2756;SDS011;1386;50.862;6.494;2023-05-10T09:35:13;11.93;;;7.90;;
2756;SDS011;1386;50.862;6.494;2023-05-10T09:37:42;12.17;;;7.07;;
2756;SDS011;1386;50.862;6.494;2023-05-10T09:40:13;14.67;;;8.50;;
2756;SDS011;1386;50.862;6.494;2023-05-10T09:42:42;11.43;;;6.90;;
2756;SDS011;1386;50.862;6.494;2023-05-10T09:45:16;9.30;;;6.33;;
2756;SDS011;1386;50.862;6.494;2023-05-10T09:47:43;9.50;;;6.93;;
2756;SDS011;1386;50.862;6.494;2023-05-10T09:50:11;9.40;;;6.13;;
2756;SDS011;1386;50.862;6.494;2023-05-10T09:52:45;8.77;;;5.37;;
2756;SDS011;1386;50.862;6.494;2023-05-10T09:55:15;6.00;;;4.00;;
2756;SDS011;1386;50.862;6.494;2023-05-10T09:57:43;6.33;;;3.97;;
2756;SDS011;1386;50.862;6.494;2023-05-10T10:00:17;4.00;;;3.33;;
2756;SDS011;1386;50.862;6.494;2023-05-10T10:02:46;3.60;;;2.97;;
2756;SDS011;1386;50.862;6.494;2023-05-10T10:05:14;4.10;;;3.10;;
2756;SDS011;1386;50.862;6.494;2023-05-10T10:07:41;6.10;;;4.53;;
2756;SDS011;1386;50.862;6.494;2023-05-10T10:10:09;6.77;;;4.80;;
2756;SDS011;1386;50.862;6.494;2023-05-10T10:15:16;5.53;;;4.73;;
2756;SDS011;1386;50.862;6.494;2023-05-10T10:17:44;6.40;;;4.73;;
2756;SDS011;1386;50.862;6.494;2023-05-10T10:20:11;7.30;;;4.97;;
2756;SDS011;1386;50.862;6.494;2023-05-10T10:22:42;6.20;;;4.70;;
2756;SDS011;1386;50.862;6.494;2023-05-10T10:25:11;6.80;;;4.87;;
2756;SDS011;1386;50.862;6.494;2023-05-10T10:27:43;8.27;;;4.20;;
2756;SDS011;1386;50.862;6.494;2023-05-10T10:30:18;6.33;;;4.87;;
2756;SDS011;1386;50.862;6.494;2023-05-10T10:33:06;5.77;;;4.33;;
2756;SDS011;1386;50.862;6.494;2023-05-10T10:35:44;5.57;;;3.77;;
2756;SDS011;1386;50.862;6.494;2023-05-10T10:38:12;4.97;;;3.97;;
2756;SDS011;1386;50.862;6.494;2023-05-10T10:40:39;5.00;;;3.93;;
2756;SDS011;1386;50.862;6.494;2023-05-10T10:43:23;3.80;;;2.90;;
2756;SDS011;1386;50.862;6.494;2023-05-10T10:46:11;4.23;;;2.50;;
2756;SDS011;1386;50.862;6.494;2023-05-10T10:48:39;2.57;;;2.30;;
2756;SDS011;1386;50.862;6.494;2023-05-10T10:51:06;4.30;;;2.90;;
2756;SDS011;1386;50.862;6.494;2023-05-10T10:53:33;4.67;;;2.83;;
2756;SDS011;1386;50.862;6.494;2023-05-10T10:56:06;3.50;;;3.03;;
2756;SDS011;1386;50.862;6.494;2023-05-10T10:58:36;4.07;;;3.30;;
2756;SDS011;1386;50.862;6.494;2023-05-10T11:01:10;2.70;;;2.23;;
2756;SDS011;1386;50.862;6.494;2023-05-10T11:03:38;3.00;;;2.70;;
2756;SDS011;1386;50.862;6.494;2023-05-10T11:06:05;2.77;;;2.13;;
2756;SDS011;1386;50.862;6.494;2023-05-10T11:08:41;3.77;;;2.90;;
2756;SDS011;1386;50.862;6.494;2023-05-10T11:11:09;3.80;;;2.03;;
2756;SDS011;1386;50.862;6.494;2023-05-10T11:13:43;2.87;;;1.80;;
2756;SDS011;1386;50.862;6.494;2023-05-10T11:16:12;2.27;;;1.97;;
2756;SDS011;1386;50.862;6.494;2023-05-10T11:18:40;3.67;;;2.07;;
2756;SDS011;1386;50.862;6.494;2023-05-10T11:21:17;2.40;;;2.00;;
2756;SDS011;1386;50.862;6.494;2023-05-10T11:23:48;2.50;;;1.63;;
2756;SDS011;1386;50.862;6.494;2023-05-10T11:26:16;2.10;;;1.63;;
2756;SDS011;1386;50.862;6.494;2023-05-10T11:28:49;1.30;;;1.20;;
2756;SDS011;1386;50.862;6.494;2023-05-10T11:31:21;1.50;;;1.10;;
2756;SDS011;1386;50.862;6.494;2023-05-10T11:33:49;1.87;;;1.40;;
2756;SDS011;1386;50.862;6.494;2023-05-10T11:36:17;1.40;;;1.30;;
2756;SDS011;1386;50.862;6.494;2023-05-10T11:38:47;1.53;;;1.10;;
2756;SDS011;1386;50.862;6.494;2023-05-10T11:41:15;1.53;;;1.40;;
2756;SDS011;1386;50.862;6.494;2023-05-10T11:43:45;1.83;;;1.20;;
2756;SDS011;1386;50.862;6.494;2023-05-10T11:46:16;2.20;;;1.23;;
2756;SDS011;1386;50.862;6.494;2023-05-10T11:48:45;1.40;;;1.20;;
2756;SDS011;1386;50.862;6.494;2023-05-10T11:51:12;1.90;;;1.30;;
2756;SDS011;1386;50.862;6.494;2023-05-10T11:53:39;1.40;;;1.30;;
2756;SDS011;1386;50.862;6.494;2023-05-10T11:56:07;2.53;;;1.30;;
2756;SDS011;1386;50.862;6.494;2023-05-10T11:58:35;2.40;;;1.20;;
2756;SDS011;1386;50.862;6.494;2023-05-10T12:01:12;2.20;;;1.20;;
2756;SDS011;1386;50.862;6.494;2023-05-10T12:03:40;2.80;;;1.63;;
2756;SDS011;1386;50.862;6.494;2023-05-10T12:06:08;2.70;;;1.10;;
2756;SDS011;1386;50.862;6.494;2023-05-10T12:08:35;2.90;;;1.27;;
2756;SDS011;1386;50.862;6.494;2023-05-10T12:11:06;1.50;;;1.20;;
2756;SDS011;1386;50.862;6.494;2023-05-10T12:13:37;1.33;;;1.23;;
2756;SDS011;1386;50.862;6.494;2023-05-10T12:16:14;2.07;;;1.20;;
2756;SDS011;1386;50.862;6.494;2023-05-10T12:18:43;2.17;;;1.50;;
2756;SDS011;1386;50.862;6.494;2023-05-10T12:21:11;1.60;;;1.13;;
2756;SDS011;1386;50.862;6.494;2023-05-10T12:23:38;2.40;;;1.30;;
2756;SDS011;1386;50.862;6.494;2023-05-10T12:49:34;1.60;;;1.50;;
2756;SDS011;1386;50.862;6.494;2023-05-10T12:52:07;1.60;;;1.30;;
2756;SDS011;1386;50.862;6.494;2023-05-10T12:54:35;1.47;;;1.10;;
2756;SDS011;1386;50.862;6.494;2023-05-10T12:57:02;2.10;;;1.20;;
2756;SDS011;1386;50.862;6.494;2023-05-10T12:59:29;2.57;;;1.43;;
2756;SDS011;1386;50.862;6.494;2023-05-10T13:02:05;2.00;;;1.30;;
2756;SDS011;1386;50.862;6.494;2023-05-10T14:13:11;3.40;;;2.73;;
2756;SDS011;1386;50.862;6.494;2023-05-10T14:15:38;3.10;;;2.60;;
2756;SDS011;1386;50.862;6.494;2023-05-10T14:18:05;2.63;;;1.97;;
2756;SDS011;1386;50.862;6.494;2023-05-10T14:20:31;4.60;;;2.50;;
2756;SDS011;1386;50.862;6.494;2023-05-10T14:22:58;2.43;;;1.93;;
2756;SDS011;1386;50.862;6.494;2023-05-10T14:26:10;3.77;;;2.27;;
2756;SDS011;1386;50.862;6.494;2023-05-10T14:28:24;2.13;;;1.80;;
2756;SDS011;1386;50.862;6.494;2023-05-10T14:30:51;2.90;;;2.60;;
2756;SDS011;1386;50.862;6.494;2023-05-10T14:36:18;5.00;;;2.23;;
2756;SDS011;1386;50.862;6.494;2023-05-10T14:38:51;2.87;;;2.07;;
2756;SDS011;1386;50.862;6.494;2023-05-10T14:41:23;3.23;;;2.93;;
2756;SDS011;1386;50.862;6.494;2023-05-10T14:43:55;3.33;;;2.73;;
2756;SDS011;1386;50.862;6.494;2023-05-10T14:46:25;2.90;;;2.50;;
2756;SDS011;1386;50.862;6.494;2023-05-10T14:48:52;3.70;;;2.67;;
2756;SDS011;1386;50.862;6.494;2023-05-10T14:51:25;4.50;;;2.83;;
2756;SDS011;1386;50.862;6.494;2023-05-10T14:53:53;3.40;;;2.90;;
2756;SDS011;1386;50.862;6.494;2023-05-10T14:56:21;3.80;;;2.67;;
2756;SDS011;1386;50.862;6.494;2023-05-10T14:58:49;4.70;;;3.70;;
2756;SDS011;1386;50.862;6.494;2023-05-10T15:01:18;4.17;;;2.67;;
2756;SDS011;1386;50.862;6.494;2023-05-10T15:03:45;3.23;;;2.43;;
2756;SDS011;1386;50.862;6.494;2023-05-10T15:06:30;3.00;;;2.17;;
2756;SDS011;1386;50.862;6.494;2023-05-10T15:08:57;4.73;;;2.70;;
2756;SDS011;1386;50.862;6.494;2023-05-10T15:14:14;4.03;;;3.30;;
2756;SDS011;1386;50.862;6.494;2023-05-10T15:16:43;4.93;;;3.20;;
2756;SDS011;1386;50.862;6.494;2023-05-10T15:19:09;6.00;;;3.13;;
2756;SDS011;1386;50.862;6.494;2023-05-10T15:21:37;5.93;;;3.53;;
2756;SDS011;1386;50.862;6.494;2023-05-10T15:24:07;5.93;;;3.53;;
2756;SDS011;1386;50.862;6.494;2023-05-10T15:26:34;5.60;;;3.93;;
2756;SDS011;1386;50.862;6.494;2023-05-10T15:29:01;3.83;;;3.10;;
2756;SDS011;1386;50.862;6.494;2023-05-10T15:31:42;4.90;;;3.40;;
2756;SDS011;1386;50.862;6.494;2023-05-10T15:34:11;3.53;;;3.07;;
2756;SDS011;1386;50.862;6.494;2023-05-10T15:36:42;4.50;;;2.57;;
2756;SDS011;1386;50.862;6.494;2023-05-10T15:39:14;2.20;;;2.00;;
2756;SDS011;1386;50.862;6.494;2023-05-10T15:41:41;4.17;;;2.37;;
2756;SDS011;1386;50.862;6.494;2023-05-10T15:44:08;2.83;;;2.23;;
2756;SDS011;1386;50.862;6.494;2023-05-10T15:46:36;2.73;;;1.63;;
2756;SDS011;1386;50.862;6.494;2023-05-10T15:49:04;2.67;;;1.67;;
2756;SDS011;1386;50.862;6.494;2023-05-10T15:51:31;4.20;;;2.10;;
2756;SDS011;1386;50.862;6.494;2023-05-10T15:53:59;3.27;;;1.93;;
2756;SDS011;1386;50.862;6.494;2023-05-10T15:56:26;2.30;;;1.93;;
2756;SDS011;1386;50.862;6.494;2023-05-10T15:58:54;2.80;;;1.80;;
2756;SDS011;1386;50.862;6.494;2023-05-10T16:01:21;3.20;;;1.83;;
2756;SDS011;1386;50.862;6.494;2023-05-10T16:03:48;6.33;;;1.93;;
2756;SDS011;1386;50.862;6.494;2023-05-10T16:06:17;2.17;;;1.60;;
2756;SDS011;1386;50.862;6.494;2023-05-10T16:08:44;3.27;;;1.40;;
2756;SDS011;1386;50.862;6.494;2023-05-10T16:11:11;1.50;;;1.23;;
2756;SDS011;1386;50.862;6.494;2023-05-10T16:13:41;2.13;;;1.53;;
2756;SDS011;1386;50.862;6.494;2023-05-10T16:16:14;2.83;;;1.53;;
2756;SDS011;1386;50.862;6.494;2023-05-10T16:18:41;2.10;;;1.30;;
2756;SDS011;1386;50.862;6.494;2023-05-10T16:21:08;2.07;;;1.53;;
2756;SDS011;1386;50.862;6.494;2023-05-10T16:23:37;3.20;;;1.83;;
2756;SDS011;1386;50.862;6.494;2023-05-10T16:26:04;1.30;;;1.20;;
2756;SDS011;1386;50.862;6.494;2023-05-10T16:28:34;2.60;;;1.20;;
2756;SDS011;1386;50.862;6.494;2023-05-10T16:31:07;1.50;;;1.30;;
2756;SDS011;1386;50.862;6.494;2023-05-10T16:33:34;2.33;;;1.60;;
2756;SDS011;1386;50.862;6.494;2023-05-10T16:36:02;1.50;;;1.17;;
2756;SDS011;1386;50.862;6.494;2023-05-10T16:38:30;2.20;;;1.30;;
2756;SDS011;1386;50.862;6.494;2023-05-10T16:40:58;1.97;;;1.40;;
2756;SDS011;1386;50.862;6.494;2023-05-10T16:43:27;2.00;;;1.53;;
2756;SDS011;1386;50.862;6.494;2023-05-10T16:45:54;1.87;;;1.30;;
2756;SDS011;1386;50.862;6.494;2023-05-10T16:48:21;2.23;;;1.80;;
2756;SDS011;1386;50.862;6.494;2023-05-10T16:50:49;2.07;;;1.47;;
2756;SDS011;1386;50.862;6.494;2023-05-10T16:53:16;2.30;;;1.80;;
2756;SDS011;1386;50.862;6.494;2023-05-10T16:55:43;3.47;;;1.67;;
2756;SDS011;1386;50.862;6.494;2023-05-10T16:58:11;1.77;;;1.47;;
2756;SDS011;1386;50.862;6.494;2023-05-10T17:00:38;1.43;;;1.20;;
2756;SDS011;1386;50.862;6.494;2023-05-10T17:03:06;1.30;;;1.17;;
2756;SDS011;1386;50.862;6.494;2023-05-10T17:05:33;1.47;;;1.10;;
2756;SDS011;1386;50.862;6.494;2023-05-10T17:08:02;1.33;;;1.23;;
2756;SDS011;1386;50.862;6.494;2023-05-10T17:10:33;1.37;;;1.03;;
2756;SDS011;1386;50.862;6.494;2023-05-10T17:13:00;1.90;;;1.30;;
2756;SDS011;1386;50.862;6.494;2023-05-10T17:15:32;1.40;;;1.30;;
2756;SDS011;1386;50.862;6.494;2023-05-10T17:18:01;4.53;;;1.03;;
2756;SDS011;1386;50.862;6.494;2023-05-10T17:20:28;1.53;;;1.20;;
2756;SDS011;1386;50.862;6.494;2023-05-10T17:22:55;3.00;;;1.60;;
2756;SDS011;1386;50.862;6.494;2023-05-10T17:25:23;2.40;;;1.20;;
2756;SDS011;1386;50.862;6.494;2023-05-10T17:27:53;4.60;;;1.60;;
2756;SDS011;1386;50.862;6.494;2023-05-10T17:30:20;2.30;;;1.30;;
2756;SDS011;1386;50.862;6.494;2023-05-10T17:32:52;3.70;;;1.67;;
2756;SDS011;1386;50.862;6.494;2023-05-10T17:37:54;2.73;;;1.23;;
2756;SDS011;1386;50.862;6.494;2023-05-10T17:40:21;4.43;;;1.70;;
2756;SDS011;1386;50.862;6.494;2023-05-10T17:42:48;4.20;;;1.50;;
2756;SDS011;1386;50.862;6.494;2023-05-10T17:45:16;2.10;;;1.90;;
2756;SDS011;1386;50.862;6.494;2023-05-10T17:47:43;2.43;;;1.47;;
2756;SDS011;1386;50.862;6.494;2023-05-10T17:50:14;4.27;;;1.93;;
2756;SDS011;1386;50.862;6.494;2023-05-10T17:52:41;3.93;;;1.77;;
2756;SDS011;1386;50.862;6.494;2023-05-10T17:55:08;3.67;;;1.80;;
2756;SDS011;1386;50.862;6.494;2023-05-10T17:57:36;4.20;;;1.80;;
2756;SDS011;1386;50.862;6.494;2023-05-10T18:00:03;2.30;;;1.80;;
2756;SDS011;1386;50.862;6.494;2023-05-10T18:02:33;2.27;;;1.77;;
